King Salmon Airport
PAKN : rendu visible

Aérodrome :











RETROUVEZ-NOUS SUR...

 
LOGIN :

S'inscrire | Disclaimer

   EN    FR    IT 

 









Légende :    VFR   VFR Marginal   IFR   IFR Intensif   IFR Très Intensif
Visi : 
Plafond : 
>= 8 km
>= 3000ft
5 à 8 km
1000 à 3000 ft
1500m à 5 km
500 à 1000 ft
800 à 1500m
200 à 500 ft
< 800m
< 200 ft
Symboles :   Orages  Brouillard  Fortes neiges  Fortes précipitations  Vent > 20 kt






- Altitude de l'aérodrome : 73 ft
- Code IATA : AKN


PAKN - King Salmon

DERNIER METAR :
  • 072054Z 00000KT 9SM OVC046 03/00 A2902 RMK AO2 SLP828 T00330000 50001

METARs EXPIRÉS :
  • 071954Z AUTO 16005KT 10SM BKN080 OVC090 03/00 A2902 RMK AO2 SLP829 T00330000 TSNO
  • 071854Z AUTO 16009KT 10SM OVC100 04/M01 A2903 RMK AO2 SLP830 T00441006 TSNO

TAF PAKN
Valide du 07 à 18h jusqu'au 08 à 18h UTC


071741Z 0718/0818 13008KT P6SM OVC110
FM072300 15006KT P6SM -RA OVC015
FM080400 23006KT 6SM -RA BR OVC025
FM080600 20006KT P6SM OVC050



MET'MAP, la Météo Aéronautique d'un coup d'oeil ! - Copyright ORBIFLY Décembre 2007 - Disclaimer

ORBIFLY MET'MAP TEAM :

Programmation & Développement : Alexandra Zaïnal
Sur une idée originale de : Baudouin d'Aumeries
Assistance à la programmation : Marc-Olivier Méhu
Soutien technique & logistique : Manuel Goepfert

Contact : metmap@orbifly.com




SOURCES & CREDITS :

   NOAA       Earth
Advisory